Time;durP1;ratioP1;P1;durP2;ratioP2;P2;SDS_P1;SDS_P2;PMS_P1;PMS_P2;Temp;Humidity;BMP_temperature;BMP_pressure;BME280_temperature;BME280_humidity;BME280_pressure;Samples;Min_cycle;Max_cycle;Signal;HPM_P1;HPM_P2
2022/05/16 07:58:41;;;;;;;8.77;4.28;;;;;;;20.36;58.16;101196.38;5323201;27;1216323;-79
2022/05/16 08:01:12;;;;;;;7.97;3.30;;;;;;;20.39;58.10;101195.69;5344043;28;20032;-77
2022/05/16 08:03:44;;;;;;;10.40;6.53;;;;;;;20.48;58.86;101192.78;5344160;27;20098;-77
2022/05/16 08:06:15;;;;;;;5.93;3.60;;;;;;;20.52;58.70;101187.25;5343297;27;20016;-79
2022/05/16 08:11:37;;;;;;;6.90;3.75;;;;;;;20.60;58.78;101186.38;5341834;28;20035;-77
2022/05/16 08:14:08;;;;;;;8.43;4.50;;;;;;;20.63;58.78;101194.13;5335589;28;20032;-73
2022/05/16 08:16:40;;;;;;;9.02;3.80;;;;;;;20.72;58.20;101188.38;5343541;28;20019;-78
2022/05/16 08:19:11;;;;;;;6.82;3.35;;;;;;;20.85;58.65;101190.84;5342880;27;20022;-78
2022/05/16 08:21:43;;;;;;;9.25;4.32;;;;;;;20.99;57.99;101195.34;5343893;27;20058;-77
2022/05/16 08:24:15;;;;;;;5.00;3.40;;;;;;;21.21;58.10;101203.31;5343930;27;20374;-77
2022/05/16 08:26:49;;;;;;;9.32;3.58;;;;;;;21.42;57.22;101202.38;5343302;27;20459;-77
2022/05/16 08:29:20;;;;;;;7.20;3.80;;;;;;;21.83;55.73;101206.03;5343782;27;20027;-78
2022/05/16 08:31:51;;;;;;;11.45;3.35;;;;;;;21.96;54.20;101204.84;5343750;27;20020;-77
2022/05/16 08:34:24;;;;;;;9.23;3.08;;;;;;;22.12;54.00;101202.88;5338219;27;20020;-78
2022/05/16 08:39:55;;;;;;;5.13;2.50;;;;;;;22.41;53.56;101192.41;5321021;28;20027;-79
2022/05/16 08:42:48;;;;;;;6.63;3.55;;;;;;;22.57;53.13;101207.41;5322190;28;20028;-78
2022/05/16 08:45:41;;;;;;;7.78;3.60;;;;;;;22.58;52.69;101192.06;5321749;28;20031;-78
2022/05/16 08:48:32;;;;;;;9.68;3.47;;;;;;;23.00;52.68;101193.56;5321045;28;20031;-78
2022/05/16 08:51:11;;;;;;;6.68;3.03;;;;;;;23.05;51.58;101203.78;5336762;28;20030;-77
2022/05/16 08:53:50;;;;;;;5.88;4.13;;;;;;;22.97;51.56;101200.75;5342686;27;20028;-79
2022/05/16 08:56:28;;;;;;;5.72;2.88;;;;;;;23.18;52.12;101196.81;5343450;27;20065;-79
2022/05/16 08:59:11;;;;;;;8.25;2.78;;;;;;;23.20;50.58;101198.09;5347208;27;20043;-79
2022/05/16 09:01:49;;;;;;;10.30;3.70;;;;;;;23.27;50.76;101196.63;5342390;27;20099;-78
2022/05/16 09:04:30;;;;;;;7.78;4.15;;;;;;;23.30;50.06;101195.91;5342811;27;20020;-79
2022/05/16 09:07:15;;;;;;;5.78;2.53;;;;;;;23.37;50.09;101196.88;5342791;27;20135;-76
2022/05/16 09:09:47;;;;;;;;;;;;;;;23.48;50.21;101204.81;5329558;27;20055;-77
2022/05/16 09:12:37;;;;;;;6.60;2.60;;;;;;;23.51;50.35;101199.22;5328685;28;19951;-76
2022/05/16 09:15:30;;;;;;;7.55;3.40;;;;;;;23.50;50.24;101202.44;5306073;28;20043;-77
2022/05/16 09:18:27;;;;;;;4.75;2.95;;;;;;;23.62;50.45;101199.44;5307245;28;20367;-77
2022/05/16 09:20:59;;;;;;;7.18;3.53;;;;;;;23.53;49.91;101204.50;5306818;28;20039;-76
2022/05/16 09:23:55;;;;;;;4.77;3.37;;;;;;;23.58;50.08;101207.06;5306853;28;20024;-78
2022/05/16 09:27:04;;;;;;;6.43;3.38;;;;;;;23.87;49.94;101198.00;5316550;28;20356;-77
2022/05/16 09:29:45;;;;;;;8.20;2.80;;;;;;;24.00;50.21;101203.53;5326833;28;20489;-78
2022/05/16 09:32:33;;;;;;;6.63;2.97;;;;;;;24.01;49.72;101208.00;5328155;28;20024;-78
2022/05/16 09:35:24;;;;;;;3.67;2.67;;;;;;;24.08;49.07;101205.31;5328265;28;20057;-75
2022/05/16 09:37:58;;;;;;;6.25;3.22;;;;;;;23.98;48.28;101218.06;5327080;28;20496;-77
2022/05/16 09:40:35;;;;;;;8.45;3.60;;;;;;;24.07;49.04;101224.31;5307772;28;20020;-78
2022/05/16 09:43:13;;;;;;;10.32;3.95;;;;;;;24.19;48.98;101211.22;5312747;28;20020;-77
2022/05/16 09:45:52;;;;;;;6.63;3.75;;;;;;;24.43;48.42;101221.38;5327725;28;20021;-76
2022/05/16 09:48:24;;;;;;;4.97;2.80;;;;;;;24.38;48.78;101222.50;5327834;28;20023;-76
2022/05/16 09:51:01;;;;;;;5.57;2.75;;;;;;;24.34;48.27;101226.47;5326872;28;20075;-78
2022/05/16 09:53:39;;;;;;;5.63;2.60;;;;;;;24.58;48.51;101223.31;5327625;28;20032;-77
2022/05/16 09:56:24;;;;;;;8.50;2.85;;;;;;;24.48;47.75;101244.59;5327573;28;20090;-78
2022/05/16 09:59:02;;;;;;;8.52;3.40;;;;;;;24.47;47.96;101256.34;5326381;28;20152;-78
2022/05/16 10:01:40;;;;;;;8.05;4.20;;;;;;;24.45;48.38;101253.06;5327323;28;20470;-77
2022/05/16 10:04:20;;;;;;;8.10;4.13;;;;;;;24.47;48.69;101267.69;5326927;28;20048;-77
2022/05/16 10:07:02;;;;;;;7.20;3.80;;;;;;;24.39;48.65;101263.00;5327547;28;20020;-77
2022/05/16 10:09:49;;;;;;;8.35;4.00;;;;;;;24.46;48.96;101266.84;5308043;28;20164;-77
2022/05/16 10:12:24;;;;;;;6.85;3.75;;;;;;;24.37;49.27;101263.41;5305442;28;20058;-78
2022/05/16 10:14:56;;;;;;;6.95;3.50;;;;;;;24.21;49.69;101271.13;5325280;28;20035;-77
2022/05/16 10:17:32;;;;;;;6.55;3.70;;;;;;;24.19;50.21;101268.69;5326713;28;20023;-78
2022/05/16 10:20:12;;;;;;;5.85;3.70;;;;;;;24.08;50.61;101273.28;5325339;28;20030;-79
2022/05/16 10:22:45;;;;;;;10.10;4.35;;;;;;;23.91;52.49;101291.56;5326851;28;20028;-77
2022/05/16 10:25:22;;;;;;;13.10;8.35;;;;;;;23.68;54.37;101308.41;5325752;28;20031;-78
2022/05/16 10:27:55;;;;;;;12.40;4.45;;;;;;;23.30;58.91;101324.03;5326705;27;20016;-77
2022/05/16 10:30:31;;;;;;;8.75;4.35;;;;;;;22.92;63.01;101331.09;5326533;28;20023;-77
2022/05/16 10:35:59;;;;;;;8.02;4.70;;;;;;;22.43;68.48;101334.16;5329915;28;20122;-80
2022/05/16 10:38:47;;;;;;;10.23;4.93;;;;;;;22.26;70.16;101337.28;5328299;28;20513;-77
2022/05/16 10:41:23;;;;;;;8.63;4.53;;;;;;;22.07;70.36;101346.34;5325811;28;20092;-78
2022/05/16 10:44:12;;;;;;;8.35;5.05;;;;;;;22.22;71.42;101348.47;5326780;28;20157;-78
2022/05/16 10:46:59;;;;;;;10.95;4.85;;;;;;;22.32;71.04;101352.81;5325289;28;20119;-77
2022/05/16 10:49:37;;;;;;;10.38;4.93;;;;;;;22.42;71.20;101342.97;5326120;28;20023;-77
2022/05/16 10:52:17;;;;;;;10.98;4.88;;;;;;;22.50;70.45;101345.69;5326350;28;20028;-78
2022/05/16 10:54:48;;;;;;;8.88;4.85;;;;;;;22.52;68.84;101346.16;5325692;28;20032;-77
2022/05/16 10:57:41;;;;;;;9.38;5.35;;;;;;;22.60;67.30;101351.97;5326430;28;20043;-78
2022/05/16 11:00:18;;;;;;;10.50;4.63;;;;;;;22.68;68.64;101351.03;5325447;28;20062;-77
2022/05/16 11:03:15;;;;;;;8.93;5.10;;;;;;;22.71;65.35;101353.13;5326130;28;20043;-75
2022/05/16 11:06:02;;;;;;;7.30;4.10;;;;;;;22.75;64.30;101359.69;5322459;28;20079;-76
2022/05/16 11:09:06;;;;;;;8.18;5.13;;;;;;;22.73;62.61;101362.06;5325638;28;20042;-77
2022/05/16 11:11:51;;;;;;;10.75;5.70;;;;;;;22.69;62.25;101361.13;5326834;28;20050;-76
2022/05/16 11:14:38;;;;;;;6.90;4.53;;;;;;;22.68;62.28;101363.16;5327034;28;20019;-78
2022/05/16 11:17:27;;;;;;;32.53;29.25;;;;;;;22.64;61.63;101353.72;5325875;28;20032;-78
2022/05/16 11:20:15;;;;;;;11.13;5.80;;;;;;;22.56;61.71;101357.53;5325709;28;20035;-77
2022/05/16 11:23:21;;;;;;;10.90;5.80;;;;;;;22.54;61.95;101363.53;5324901;28;20023;-77
2022/05/16 11:26:07;;;;;;;11.03;4.90;;;;;;;22.56;62.92;101364.00;5320655;28;20088;-77
2022/05/16 11:32:19;;;;;;;11.65;7.00;;;;;;;22.25;68.15;101370.34;5325343;28;20071;-76
2022/05/16 11:35:02;;;;;;;6.93;6.18;;;;;;;22.10;70.28;101369.06;5322850;28;20035;-75
2022/05/16 11:38:01;;;;;;;10.55;6.65;;;;;;;22.11;68.26;101373.53;5324722;28;20027;-77
2022/05/16 11:40:35;;;;;;;9.38;7.20;;;;;;;22.13;69.65;101371.16;5325084;28;20026;-77
2022/05/16 11:43:25;;;;;;;11.80;6.22;;;;;;;22.21;68.92;101379.88;5324496;28;20027;-77
2022/05/16 11:46:25;;;;;;;8.75;6.45;;;;;;;22.18;68.17;101380.56;5325363;28;20030;-77
2022/05/16 11:49:30;;;;;;;8.82;6.25;;;;;;;22.17;67.05;101384.59;5324221;28;20047;-78
2022/05/16 11:52:31;;;;;;;8.65;6.60;;;;;;;22.17;66.13;101390.25;5324482;28;20078;-77
2022/05/16 12:00:31;;;;;;;8.38;5.57;;;;;;;22.06;65.39;101385.09;5319161;28;20047;-78
2022/05/16 12:01:01;;;;;;;11.05;7.18;;;;;;;21.91;65.84;101394.28;5324537;28;20057;-74
2022/05/16 12:03:40;;;;;;;11.43;7.75;;;;;;;21.90;66.89;101399.06;5324518;28;20024;-74
2022/05/16 12:06:26;;;;;;;10.25;7.97;;;;;;;21.88;66.78;101406.25;5325053;28;20157;-79
2022/05/16 12:09:20;;;;;;;;;;;;;;;21.99;67.22;101400.97;5325486;28;20034;-78
2022/05/16 12:12:11;;;;;;;11.55;8.98;;;;;;;21.81;69.10;101417.34;5313260;28;20381;-78
2022/05/16 12:14:43;;;;;;;22.08;12.07;;;;;;;21.67;70.06;101424.13;5325218;28;20416;-78
2022/05/16 12:17:14;;;;;;;13.63;10.75;;;;;;;21.75;70.92;101430.84;5324751;28;20020;-78
2022/05/16 12:19:53;;;;;;;19.73;16.07;;;;;;;21.67;70.58;101429.78;5324220;28;20020;-77
2022/05/16 12:22:34;;;;;;;16.20;14.43;;;;;;;21.74;71.41;101434.03;5324758;28;20027;-73
2022/05/16 12:25:11;;;;;;;13.00;10.82;;;;;;;21.69;72.36;101447.19;5323852;28;20363;-72
2022/05/16 12:27:44;;;;;;;18.77;11.65;;;;;;;21.49;72.64;101437.63;5325890;28;20028;-77
2022/05/16 12:30:22;;;;;;;14.50;13.10;;;;;;;21.24;73.22;101444.34;5325452;28;20020;-79
2022/05/16 12:32:55;;;;;;;13.93;11.70;;;;;;;21.09;73.73;101447.81;5313372;28;20028;-79
2022/05/16 12:35:27;;;;;;;14.68;12.93;;;;;;;21.06;73.79;101454.97;5325120;28;20027;-78
2022/05/16 12:37:58;;;;;;;13.15;11.98;;;;;;;21.13;73.83;101454.44;5325340;28;20036;-78
2022/05/16 12:40:51;;;;;;;14.57;13.23;;;;;;;20.95;75.21;101460.22;5324695;28;20108;-77
2022/05/16 12:43:32;;;;;;;14.80;13.40;;;;;;;20.85;75.50;101458.66;5325311;28;20036;-77
2022/05/16 12:46:18;;;;;;;14.27;12.95;;;;;;;20.89;74.86;101464.44;5325869;28;20513;-76
2022/05/16 12:49:05;;;;;;;17.98;12.55;;;;;;;20.80;74.54;101463.69;5319460;28;20047;-77
2022/05/16 12:51:45;;;;;;;14.32;12.93;;;;;;;20.78;74.49;101477.28;5328408;28;20059;-76
2022/05/16 12:54:45;;;;;;;15.13;13.32;;;;;;;20.84;74.28;101476.75;5328113;28;20100;-76
2022/05/16 12:57:40;;;;;;;18.30;14.40;;;;;;;20.92;74.68;101485.47;5328413;28;20051;-76
2022/05/16 13:00:48;;;;;;;17.55;14.48;;;;;;;20.70;75.43;101497.91;5327888;27;20363;-77
2022/05/16 13:03:45;;;;;;;18.80;13.90;;;;;;;20.68;76.08;101488.97;5324773;28;20035;-77
2022/05/16 13:06:33;;;;;;;16.17;14.57;;;;;;;20.63;76.44;101488.03;5327851;28;20087;-77
2022/05/16 13:09:41;;;;;;;17.98;14.63;;;;;;;20.61;75.28;101493.16;5306489;28;20416;-76
2022/05/16 13:12:43;;;;;;;17.92;16.20;;;;;;;20.69;75.72;101490.63;5299780;28;20042;-77
2022/05/16 13:15:32;;;;;;;17.30;15.50;;;;;;;20.69;76.06;101494.28;5306171;28;20019;-78
2022/05/16 13:18:10;;;;;;;17.80;16.10;;;;;;;20.61;75.80;101495.16;5306931;28;20111;-75
2022/05/16 13:20:44;;;;;;;16.77;15.27;;;;;;;20.79;75.50;101493.03;5306821;28;20020;-77
2022/05/16 13:23:16;;;;;;;20.55;18.63;;;;;;;20.81;75.11;101500.00;5322375;28;20080;-77
2022/05/16 13:31:42;;;;;;;18.90;17.00;;;;;;;20.99;74.74;101500.66;5328552;28;20059;-78
2022/05/16 13:34:26;;;;;;;20.33;18.42;;;;;;;20.94;74.33;101506.53;5327827;28;20023;-79
2022/05/16 13:36:58;;;;;;;20.77;17.98;;;;;;;21.06;73.68;101491.63;5326770;28;20083;-76
2022/05/16 13:39:35;;;;;;;20.02;18.17;;;;;;;21.04;73.39;101496.81;5327365;28;20081;-75
2022/05/16 13:42:06;;;;;;;20.60;18.40;;;;;;;20.97;73.06;101491.72;5326663;28;20045;-74
2022/05/16 13:44:41;;;;;;;21.17;18.85;;;;;;;20.93;72.81;101504.03;5328450;28;20379;-81
2022/05/16 13:47:15;;;;;;;23.80;19.90;;;;;;;21.02;71.92;101499.16;5320388;28;20458;-83
2022/05/16 13:49:47;;;;;;;22.27;19.42;;;;;;;21.08;71.69;101500.59;5325912;28;20669;-83
2022/05/16 13:52:24;;;;;;;21.20;18.10;;;;;;;21.13;71.39;101502.38;5317066;28;20114;-80
2022/05/16 13:55:00;;;;;;;26.52;18.27;;;;;;;21.31;71.78;101501.03;5323101;28;20392;-85
2022/05/16 13:57:31;;;;;;;20.13;17.52;;;;;;;21.30;70.33;101499.38;5331259;28;20039;-84
2022/05/16 14:00:41;;;;;;;20.30;17.52;;;;;;;21.28;70.94;101505.38;5333221;28;20497;-88
2022/05/16 14:03:25;;;;;;;21.92;18.63;;;;;;;21.34;70.42;101510.78;5328002;28;20028;-83
2022/05/16 14:05:58;;;;;;;40.78;36.67;;;;;;;21.24;69.57;101510.06;5380229;22;21758;-87
2022/05/16 14:08:42;;;;;;;22.00;19.75;;;;;;;21.33;69.87;101500.69;5268386;28;20112;-77
2022/05/16 14:11:19;;;;;;;21.48;19.35;;;;;;;21.19;70.21;101504.66;5286169;28;20032;-85
2022/05/16 14:13:54;;;;;;;23.38;19.52;;;;;;;21.19;70.30;101504.66;5277256;28;20029;-86
2022/05/16 14:16:37;;;;;;;19.77;17.87;;;;;;;21.22;69.88;101500.31;5287005;28;20028;-87
2022/05/16 14:19:13;;;;;;;22.25;18.73;;;;;;;21.17;69.75;101501.34;5288550;28;20328;-84
2022/05/16 14:21:47;;;;;;;19.90;17.83;;;;;;;21.21;70.27;101507.91;5286301;28;20379;-87
2022/05/16 14:24:26;;;;;;;20.80;18.77;;;;;;;21.14;70.01;101504.00;5284880;28;20051;-85
2022/05/16 14:26:57;;;;;;;20.27;18.38;;;;;;;21.21;69.87;101512.75;5287446;28;20028;-84
2022/05/16 14:29:32;;;;;;;20.58;17.90;;;;;;;21.28;68.98;101507.38;5284201;28;20032;-83
2022/05/16 14:32:11;;;;;;;19.85;17.77;;;;;;;21.22;68.56;101514.41;5286096;28;20048;-85
2022/05/16 14:34:44;;;;;;;26.20;23.67;;;;;;;21.26;68.10;101504.06;5288450;28;20050;-84
2022/05/16 14:37:17;;;;;;;18.42;16.85;;;;;;;21.33;67.73;101514.78;5292019;28;20051;-83
2022/05/16 14:40:04;;;;;;;17.08;14.90;;;;;;;21.33;66.29;101524.09;5294666;28;20052;-82
2022/05/16 14:42:40;;;;;;;13.73;10.65;;;;;;;21.37;61.41;101522.22;5291332;28;20055;-84
2022/05/16 14:45:14;;;;;;;13.23;8.68;;;;;;;21.33;61.08;101524.09;5293619;28;20082;-82
2022/05/16 14:47:48;;;;;;;14.75;8.68;;;;;;;21.28;61.04;101525.13;5288042;28;20064;-81
2022/05/16 14:50:25;;;;;;;12.80;8.02;;;;;;;21.36;61.11;101529.03;5285464;28;20027;-84
2022/05/16 14:53:14;;;;;;;14.48;8.70;;;;;;;21.36;60.41;101531.84;5285934;28;20033;-84
2022/05/16 14:55:49;;;;;;;14.80;8.55;;;;;;;21.36;61.03;101533.84;5286303;28;20364;-83
2022/05/16 14:58:20;;;;;;;20.55;14.13;;;;;;;21.46;61.38;101539.09;5285261;28;20039;-85
2022/05/16 15:06:36;;;;;;;9.18;6.20;;;;;;;21.48;60.94;101551.69;5287363;28;20041;-88
2022/05/16 15:09:12;;;;;;;11.50;6.35;;;;;;;21.52;60.90;101546.16;5286491;28;20024;-84
2022/05/16 15:11:51;;;;;;;10.93;6.28;;;;;;;21.44;60.17;101549.88;5286553;28;20032;-85
2022/05/16 15:14:26;;;;;;;9.85;5.82;;;;;;;21.40;60.04;101552.59;5284800;28;20021;-76
2022/05/16 15:16:58;;;;;;;11.32;7.25;;;;;;;21.37;59.98;101543.94;5283926;28;20020;-77
2022/05/16 15:19:29;;;;;;;8.38;5.75;;;;;;;21.31;59.96;101556.63;5283413;28;20058;-76
2022/05/16 15:22:04;;;;;;;10.45;6.05;;;;;;;21.43;60.10;101548.25;5282576;28;20109;-76
2022/05/16 15:24:38;;;;;;;8.15;5.80;;;;;;;21.51;59.59;101557.81;5282366;28;20035;-76
2022/05/16 15:27:09;;;;;;;9.95;5.78;;;;;;;21.56;60.23;101560.41;5283431;28;20040;-79
2022/05/16 15:29:41;;;;;;;8.48;5.45;;;;;;;21.56;59.92;101564.06;5282297;28;20379;-77
2022/05/16 15:32:13;;;;;;;10.38;6.07;;;;;;;21.36;59.98;101571.34;5282790;28;20024;-80
2022/05/16 15:34:45;;;;;;;11.68;5.22;;;;;;;21.21;60.66;101567.16;5282395;28;20048;-79
2022/05/16 15:37:20;;;;;;;9.48;7.47;;;;;;;21.28;61.18;101567.44;5288645;28;20043;-79
2022/05/16 15:39:54;;;;;;;10.95;6.30;;;;;;;21.34;60.38;101572.84;5285227;28;20459;-82
2022/05/16 15:42:29;;;;;;;9.37;5.43;;;;;;;21.37;59.63;101572.16;5285788;28;20039;-92
2022/05/16 15:45:02;;;;;;;9.82;5.45;;;;;;;21.38;58.98;101577.50;5287585;28;20060;-88
2022/05/16 15:47:43;;;;;;;7.47;4.75;;;;;;;21.46;59.21;101572.94;5288224;28;20100;-88
2022/05/16 15:50:16;;;;;;;9.90;4.70;;;;;;;21.58;60.12;101578.66;5293209;28;20387;-84
2022/05/16 15:52:49;;;;;;;8.73;3.97;;;;;;;21.49;58.57;101578.72;5280259;28;20040;-82
2022/05/16 15:55:25;;;;;;;6.68;3.67;;;;;;;21.60;57.15;101573.47;5280596;28;20021;-81
2022/05/16 15:57:58;;;;;;;5.75;3.88;;;;;;;21.52;56.82;101574.38;5280952;28;20119;-80
2022/05/16 16:00:29;;;;;;;5.93;3.08;;;;;;;21.57;55.91;101588.28;5279118;28;20025;-82
2022/05/16 16:08:37;;;;;;;8.32;3.25;;;;;;;21.60;55.74;101590.41;5280682;28;20032;-83
2022/05/16 16:08:49;;;;;;;5.90;2.65;;;;;;;21.75;55.38;101605.03;5282632;28;20483;-80
2022/05/16 16:11:20;;;;;;;13.30;3.47;;;;;;;21.80;56.41;101590.69;5292228;28;20028;-87
2022/05/16 16:13:51;;;;;;;6.57;2.83;;;;;;;21.87;54.96;101590.97;5282802;28;20377;-83
2022/05/16 16:16:25;;;;;;;8.20;3.40;;;;;;;21.91;55.30;101591.94;5285262;28;20033;-90
2022/05/16 16:18:57;;;;;;;10.20;3.40;;;;;;;21.95;55.04;101592.84;5285371;28;20040;-85
2022/05/16 16:21:28;;;;;;;7.00;3.83;;;;;;;22.09;56.25;101590.56;5287597;28;20048;-80
2022/05/16 16:23:59;;;;;;;9.00;3.55;;;;;;;22.08;56.88;101590.88;5284035;28;20040;-78
2022/05/16 16:26:31;;;;;;;6.00;3.25;;;;;;;22.17;56.56;101599.28;5284484;28;20040;-79
2022/05/16 16:29:03;;;;;;;10.98;4.68;;;;;;;22.13;56.85;101604.78;5285930;28;20032;-76
2022/05/16 16:31:34;;;;;;;14.20;4.78;;;;;;;22.32;55.83;101595.78;5286032;28;20024;-79
2022/05/16 16:34:09;;;;;;;10.00;5.70;;;;;;;22.31;54.63;101605.44;5286631;28;20387;-75
2022/05/16 16:36:41;;;;;;;26.33;20.13;;;;;;;22.31;54.29;101596.94;5286397;28;20472;-76
2022/05/16 16:39:14;;;;;;;6.50;3.15;;;;;;;22.37;53.90;101589.91;5285892;28;20387;-76
2022/05/16 16:41:46;;;;;;;10.50;3.92;;;;;;;22.33;53.95;101598.25;5286524;28;20024;-76
2022/05/16 16:44:19;;;;;;;6.13;2.90;;;;;;;22.26;54.23;101591.53;5286494;28;20032;-75
2022/05/16 16:46:51;;;;;;;7.25;3.80;;;;;;;22.11;54.55;101593.84;5285644;28;20035;-76
2022/05/16 16:49:22;;;;;;;8.40;3.58;;;;;;;22.13;54.26;101597.13;5286136;28;20028;-75
2022/05/16 16:57:43;;;;;;;6.82;3.53;;;;;;;22.68;52.67;101594.16;5284570;28;20127;-76
2022/05/16 17:00:20;;;;;;;5.47;3.03;;;;;;;22.64;52.47;101593.19;5284912;28;20029;-75
2022/05/16 17:02:55;;;;;;;9.88;3.22;;;;;;;22.86;52.20;101584.22;5286124;28;20032;-76
2022/05/16 17:05:29;;;;;;;6.55;3.00;;;;;;;22.58;52.64;101592.63;5285861;28;20027;-76
2022/05/16 17:08:04;;;;;;;9.80;3.28;;;;;;;22.63;52.37;101600.03;5283661;28;20487;-76
2022/05/16 17:10:44;;;;;;;6.25;3.20;;;;;;;22.67;51.73;101600.97;5285815;28;20391;-75
2022/05/16 17:13:24;;;;;;;10.27;4.25;;;;;;;22.73;52.09;101600.38;5269795;28;20120;-76
2022/05/16 17:15:58;;;;;;;5.75;3.08;;;;;;;22.78;51.56;101602.97;5265384;28;20029;-75
2022/05/16 17:18:30;;;;;;;9.68;2.90;;;;;;;22.73;51.26;101599.56;5265246;28;20033;-75
2022/05/16 17:21:04;;;;;;;10.38;3.53;;;;;;;22.66;51.16;101616.28;5277984;28;20024;-75
2022/05/16 17:23:35;;;;;;;8.30;3.00;;;;;;;22.68;51.19;101619.59;5285920;28;20024;-74
2022/05/16 17:26:09;;;;;;;7.97;2.70;;;;;;;22.70;50.87;101617.22;5285470;28;20013;-75
2022/05/16 17:28:41;;;;;;;8.00;3.00;;;;;;;22.99;50.86;101625.47;5284630;28;20035;-75
